Time;durP1;ratioP1;P1;durP2;ratioP2;P2;SDS_P1;SDS_P2;PMS_P1;PMS_P2;Temp;Humidity;BMP_temperature;BMP_pressure;BME280_temperature;BME280_humidity;BME280_pressure;Samples;Min_cycle;Max_cycle;Signal;HPM_P1;HPM_P2
2021/06/04 00:02:05;;;;;;;;;;;;;;;24.60;30.87;101830.72;6103340;23;96902;-87
2021/06/04 00:04:31;;;;;;;;;;;;;;;24.79;30.53;101838.25;6101550;23;98154;-87
2021/06/04 00:06:57;;;;;;;;;;;;;;;24.77;30.60;101834.78;6099766;23;98072;-87
2021/06/04 00:09:23;;;;;;;;;;;;;;;24.82;30.30;101828.03;6100647;23;97150;-87
2021/06/04 00:11:51;;;;;;;;;;;;;;;24.73;30.66;101826.06;6099815;23;96640;-86
2021/06/04 00:14:19;;;;;;;;;;;;;;;24.49;30.86;101830.66;6100283;23;97871;-87
2021/06/04 00:16:48;;;;;;;;;;;;;;;24.63;30.60;101820.50;6099956;23;99225;-88
2021/06/04 00:19:15;;;;;;;;;;;;;;;24.55;30.67;101822.06;6101728;23;96634;-87
2021/06/04 00:21:43;;;;;;;;;;;;;;;24.40;31.18;101815.16;6103080;23;96720;-87
2021/06/04 00:24:09;;;;;;;;;;;;;;;24.35;31.23;101822.78;6099415;23;101307;-88
2021/06/04 00:26:36;;;;;;;;;;;;;;;24.03;31.54;101819.75;6100412;23;99164;-88
2021/06/04 00:29:03;;;;;;;;;;;;;;;24.09;31.73;101822.84;6100510;23;96604;-87
2021/06/04 00:31:29;;;;;;;;;;;;;;;24.26;31.46;101827.03;6101071;23;96762;-85
2021/06/04 00:33:56;;;;;;;;;;;;;;;24.11;31.78;101820.03;6100194;23;100241;-86
2021/06/04 00:36:24;;;;;;;;;;;;;;;24.00;31.82;101818.16;6100626;23;99337;-87
2021/06/04 00:38:50;;;;;;;;;;;;;;;24.30;31.43;101815.00;6104035;23;96897;-86
2021/06/04 00:41:17;;;;;;;;;;;;;;;24.30;31.23;101819.53;6103899;23;97013;-87
2021/06/04 00:43:43;;;;;;;;;;;;;;;24.30;31.25;101815.00;6115238;23;97623;-86
2021/06/04 00:46:09;;;;;;;;;;;;;;;24.46;30.79;101809.28;6116880;23;98121;-86
2021/06/04 00:48:35;;;;;;;;;;;;;;;24.16;31.26;101813.31;6111768;23;96758;-86
2021/06/04 00:51:07;;;;;;;;;;;;;;;24.44;30.88;101812.09;6112354;23;96534;-85
2021/06/04 00:53:33;;;;;;;;;;;;;;;24.44;30.92;101822.06;6115014;23;100133;-86
2021/06/04 00:56:00;;;;;;;;;;;;;;;24.34;31.12;101821.03;6112245;23;98218;-86
2021/06/04 00:58:28;;;;;;;;;;;;;;;24.40;31.20;101820.56;6111898;23;96567;-87
2021/06/04 01:00:58;;;;;;;;;;;;;;;24.29;31.25;101823.22;6113188;23;96545;-85
2021/06/04 01:03:26;;;;;;;;;;;;;;;24.18;31.60;101814.06;6116278;23;96936;-87
2021/06/04 01:05:59;;;;;;;;;;;;;;;24.49;31.12;101819.84;6115824;23;98812;-87
2021/06/04 01:08:48;;;;;;;;;;;;;;;24.35;31.25;101818.19;6113283;23;96547;-87
2021/06/04 01:11:18;;;;;;;;;;;;;;;24.39;31.18;101824.25;6104806;23;96591;-87
2021/06/04 01:13:54;;;;;;;;;;;;;;;24.41;31.07;101825.00;6102097;23;100974;-84
2021/06/04 01:16:22;;;;;;;;;;;;;;;24.32;31.40;101828.41;6101947;23;100494;-84
2021/06/04 01:18:58;;;;;;;;;;;;;;;24.27;31.37;101819.78;6107605;23;96617;-83
2021/06/04 01:21:32;;;;;;;;;;;;;;;24.31;31.19;101813.16;6117991;23;96667;-81
2021/06/04 01:24:06;;;;;;;;;;;;;;;24.29;31.29;101824.06;6117000;23;98224;-83
2021/06/04 01:26:36;;;;;;;;;;;;;;;24.25;31.43;101822.59;6118572;23;100973;-83
2021/06/04 01:29:05;;;;;;;;;;;;;;;24.21;31.55;101827.38;6118985;23;95858;-83
2021/06/04 01:31:32;;;;;;;;;;;;;;;24.26;31.56;101831.56;6117619;23;96032;-85
2021/06/04 01:34:02;;;;;;;;;;;;;;;24.26;31.39;101834.25;6110067;23;100202;-83
2021/06/04 01:36:29;;;;;;;;;;;;;;;24.31;31.42;101823.97;6101608;23;100671;-83
2021/06/04 01:38:56;;;;;;;;;;;;;;;24.39;31.11;101826.94;6102455;23;96765;-84
2021/06/04 01:41:23;;;;;;;;;;;;;;;24.15;31.68;101833.22;6099900;23;96611;-84
2021/06/04 01:43:52;;;;;;;;;;;;;;;24.37;31.42;101839.69;6099306;23;100576;-83
2021/06/04 01:46:21;;;;;;;;;;;;;;;24.37;31.27;101828.91;6098588;23;100000;-83
2021/06/04 01:48:49;;;;;;;;;;;;;;;24.35;31.46;101830.88;6100168;23;96684;-82
2021/06/04 01:51:19;;;;;;;;;;;;;;;24.23;31.56;101841.63;6099945;23;96785;-83
2021/06/04 01:53:48;;;;;;;;;;;;;;;24.17;31.80;101841.19;6109221;23;102487;-83
2021/06/04 01:56:19;;;;;;;;;;;;;;;24.18;31.78;101838.38;6112138;23;98077;-84
2021/06/04 01:58:51;;;;;;;;;;;;;;;24.19;31.76;101837.44;6108855;23;96670;-83
2021/06/04 02:04:04;;;;;;;;;;;;;;;24.13;31.71;101831.59;6105389;23;96653;-84
2021/06/04 02:06:30;;;;;;;;;;;;;;;24.34;31.51;101830.00;6100263;23;99407;-84
2021/06/04 02:08:57;;;;;;;;;;;;;;;23.84;32.07;101831.06;6105150;23;96828;-83
2021/06/04 02:11:25;;;;;;;;;;;;;;;24.09;31.85;101838.22;6108254;23;96731;-83
2021/06/04 02:13:51;;;;;;;;;;;;;;;24.05;31.68;101831.31;6098289;23;100950;-84
2021/06/04 02:16:24;;;;;;;;;;;;;;;24.00;31.83;101839.75;6097775;23;96984;-84
2021/06/04 02:18:55;;;;;;;;;;;;;;;24.09;31.86;101840.91;6097881;23;96795;-83
2021/06/04 02:21:25;;;;;;;;;;;;;;;24.27;31.75;101841.41;6101438;23;96600;-84
2021/06/04 02:23:54;;;;;;;;;;;;;;;23.89;32.37;101837.00;6096860;23;99453;-84
2021/06/04 02:26:23;;;;;;;;;;;;;;;23.92;32.24;101833.19;6097008;23;101900;-84
2021/06/04 02:28:55;;;;;;;;;;;;;;;23.93;32.06;101833.09;6071793;23;96575;-84
2021/06/04 02:31:26;;;;;;;;;;;;;;;23.84;32.14;101831.94;6097701;23;97003;-84
2021/06/04 02:33:55;;;;;;;;;;;;;;;24.15;31.66;101827.81;6096380;23;97044;-82
2021/06/04 02:36:23;;;;;;;;;;;;;;;24.02;31.66;101827.00;6096959;23;97440;-83
2021/06/04 02:38:52;;;;;;;;;;;;;;;24.03;31.71;101823.31;6097131;23;96764;-83
2021/06/04 02:41:21;;;;;;;;;;;;;;;23.91;31.51;101826.94;6096828;23;96642;-83
2021/06/04 02:43:49;;;;;;;;;;;;;;;23.67;32.16;101826.06;6096072;23;99278;-84
2021/06/04 02:46:18;;;;;;;;;;;;;;;24.01;31.55;101822.59;6097564;23;97561;-84
2021/06/04 02:48:47;;;;;;;;;;;;;;;24.03;31.56;101815.22;6098132;23;97076;-83
2021/06/04 02:51:16;;;;;;;;;;;;;;;23.88;31.91;101823.63;6098036;23;96662;-84
2021/06/04 02:53:46;;;;;;;;;;;;;;;24.09;31.46;101816.63;6098074;23;98136;-83
2021/06/04 02:56:16;;;;;;;;;;;;;;;23.73;32.05;101823.78;6096675;23;100674;-84
2021/06/04 02:58:43;;;;;;;;;;;;;;;23.97;31.48;101821.06;6098369;23;96673;-85
2021/06/04 03:01:11;;;;;;;;;;;;;;;23.95;31.43;101823.06;6098371;23;96935;-83
2021/06/04 03:03:38;;;;;;;;;;;;;;;23.73;31.93;101825.59;6096663;23;99422;-84
2021/06/04 03:06:06;;;;;;;;;;;;;;;23.72;31.79;101811.25;6097585;23;97249;-84
2021/06/04 03:08:34;;;;;;;;;;;;;;;23.67;32.02;101810.72;6099905;23;96684;-83
2021/06/04 03:11:01;;;;;;;;;;;;;;;23.74;31.87;101808.44;6099088;23;96637;-84
2021/06/04 03:13:29;;;;;;;;;;;;;;;23.83;31.65;101805.03;6099150;23;101613;-84
2021/06/04 03:15:57;;;;;;;;;;;;;;;23.74;31.86;101809.31;6099973;23;98083;-85
2021/06/04 03:18:24;;;;;;;;;;;;;;;23.69;31.91;101805.22;6101526;23;96614;-85
2021/06/04 03:20:51;;;;;;;;;;;;;;;23.85;31.73;101803.09;6102341;23;96689;-84
2021/06/04 03:23:22;;;;;;;;;;;;;;;23.87;31.57;101811.09;6103874;23;101195;-85
2021/06/04 03:25:50;;;;;;;;;;;;;;;23.40;32.28;101801.91;6108668;23;99922;-83
2021/06/04 03:28:19;;;;;;;;;;;;;;;23.64;31.70;101805.53;6109979;23;96448;-88
2021/06/04 03:33:22;;;;;;;;;;;;;;;23.72;31.54;101791.50;6119905;23;96770;-85
2021/06/04 03:35:48;;;;;;;;;;;;;;;23.59;32.08;101796.06;6135574;23;96935;-83
2021/06/04 03:38:17;;;;;;;;;;;;;;;23.48;32.17;101798.69;6136139;23;97148;-85
2021/06/04 03:40:45;;;;;;;;;;;;;;;23.50;32.14;101797.59;6136307;23;96830;-85
2021/06/04 03:43:16;;;;;;;;;;;;;;;23.57;32.05;101789.91;6144242;23;99933;-85
2021/06/04 03:45:48;;;;;;;;;;;;;;;23.62;32.12;101795.88;6146772;23;99596;-85
2021/06/04 03:48:17;;;;;;;;;;;;;;;23.56;32.16;101797.19;6140853;23;96604;-86
2021/06/04 03:56:24;;;;;;;;;;;;;;;23.53;32.45;101807.31;6145378;23;100506;-87
2021/06/04 03:58:54;;;;;;;;;;;;;;;23.27;32.83;101811.88;6146262;23;96505;-84
2021/06/04 04:01:23;;;;;;;;;;;;;;;23.22;33.18;101809.50;6140421;23;96919;-85
2021/06/04 04:03:49;;;;;;;;;;;;;;;23.25;32.83;101809.28;6137868;23;97555;-85
2021/06/04 04:06:16;;;;;;;;;;;;;;;23.15;33.26;101812.75;6142283;23;99383;-83
2021/06/04 04:08:42;;;;;;;;;;;;;;;23.57;32.68;101808.81;6141015;23;96554;-84
2021/06/04 04:11:08;;;;;;;;;;;;;;;23.21;33.27;101810.47;6145532;23;96639;-84
2021/06/04 04:13:37;;;;;;;;;;;;;;;23.18;33.52;101818.78;6141615;23;100818;-84
2021/06/04 04:16:03;;;;;;;;;;;;;;;23.24;33.31;101806.69;6142151;23;98041;-85
2021/06/04 04:18:29;;;;;;;;;;;;;;;23.26;33.20;101804.75;6139985;23;96296;-85
2021/06/04 04:20:57;;;;;;;;;;;;;;;23.19;33.61;101808.84;6140814;23;96649;-84
2021/06/04 04:23:25;;;;;;;;;;;;;;;23.29;33.11;101800.00;6139596;23;97765;-84
2021/06/04 04:25:51;;;;;;;;;;;;;;;23.26;33.14;101797.53;6140555;23;99812;-85
2021/06/04 04:28:20;;;;;;;;;;;;;;;23.59;32.65;101793.38;6133426;23;96637;-84
2021/06/04 04:30:47;;;;;;;;;;;;;;;23.66;32.65;101786.56;6133159;23;96689;-83
2021/06/04 04:33:14;;;;;;;;;;;;;;;23.79;32.51;101792.75;6129816;23;100313;-85
2021/06/04 04:35:40;;;;;;;;;;;;;;;23.47;33.03;101783.44;6135239;23;97592;-84
2021/06/04 04:38:08;;;;;;;;;;;;;;;23.50;33.58;101791.38;6132609;23;96721;-84
2021/06/04 04:40:36;;;;;;;;;;;;;;;23.58;33.34;101789.81;6130896;23;96766;-84
2021/06/04 04:43:02;;;;;;;;;;;;;;;23.71;33.01;101795.16;6132800;23;101992;-83
2021/06/04 04:45:31;;;;;;;;;;;;;;;23.47;33.47;101805.03;6138329;23;100007;-83
2021/06/04 04:47:59;;;;;;;;;;;;;;;23.51;33.42;101798.47;6149197;22;96485;-84
2021/06/04 04:50:27;;;;;;;;;;;;;;;23.44;33.60;101800.72;6150814;22;97285;-85
2021/06/04 04:52:53;;;;;;;;;;;;;;;23.49;33.32;101800.44;6151477;22;99478;-84
2021/06/04 04:55:19;;;;;;;;;;;;;;;23.52;33.43;101805.59;6151315;22;99521;-85
2021/06/04 04:57:47;;;;;;;;;;;;;;;23.66;33.09;101802.75;6152219;22;95816;-83
2021/06/04 05:00:15;;;;;;;;;;;;;;;23.59;33.43;101809.56;6152127;22;96608;-84
2021/06/04 05:02:41;;;;;;;;;;;;;;;23.62;33.20;101812.03;6151419;22;99933;-83
2021/06/04 05:05:09;;;;;;;;;;;;;;;23.65;33.44;101806.41;6150158;22;97489;-84
2021/06/04 05:07:36;;;;;;;;;;;;;;;23.55;33.67;101813.47;6149114;23;96352;-84
2021/06/04 05:10:05;;;;;;;;;;;;;;;23.56;33.65;101809.81;6140523;23;96523;-85
2021/06/04 05:12:31;;;;;;;;;;;;;;;23.49;33.79;101795.03;6148204;23;96887;-83
2021/06/04 05:14:57;;;;;;;;;;;;;;;23.19;34.23;101793.53;6139608;23;100365;-85
2021/06/04 05:17:28;;;;;;;;;;;;;;;23.21;34.58;101786.22;6145962;23;96467;-85
2021/06/04 05:19:54;;;;;;;;;;;;;;;23.09;35.43;101786.22;6148905;22;96798;-87
2021/06/04 05:22:22;;;;;;;;;;;;;;;23.44;36.46;101793.47;6148276;22;99295;-86
2021/06/04 05:24:48;;;;;;;;;;;;;;;23.48;35.82;101788.78;6150464;22;97443;-86
2021/06/04 05:27:16;;;;;;;;;;;;;;;23.28;36.48;101790.19;6149486;23;96642;-85
2021/06/04 05:29:42;;;;;;;;;;;;;;;23.13;37.41;101779.63;6147554;22;96518;-87
2021/06/04 05:32:10;;;;;;;;;;;;;;;23.04;38.19;101778.44;6144099;23;100619;-83
2021/06/04 05:34:37;;;;;;;;;;;;;;;23.16;37.84;101782.13;6133375;23;97410;-84
2021/06/04 05:37:03;;;;;;;;;;;;;;;23.14;37.79;101781.38;6132690;23;97068;-84
2021/06/04 05:39:31;;;;;;;;;;;;;;;23.12;38.25;101797.66;6131950;23;96566;-85
2021/06/04 05:42:01;;;;;;;;;;;;;;;23.07;37.72;101791.72;6136540;23;98807;-83
2021/06/04 05:44:29;;;;;;;;;;;;;;;23.26;37.24;101799.34;6133344;23;99778;-83
2021/06/04 05:46:57;;;;;;;;;;;;;;;23.60;37.29;101792.41;6131733;23;96647;-83
2021/06/04 05:49:23;;;;;;;;;;;;;;;23.71;37.53;101804.13;6136737;23;96972;-85
2021/06/04 05:51:52;;;;;;;;;;;;;;;23.54;37.64;101809.91;6130331;23;96903;-83
2021/06/04 05:54:19;;;;;;;;;;;;;;;23.09;39.16;101808.66;6131329;23;101196;-84
2021/06/04 05:56:47;;;;;;;;;;;;;;;22.79;40.85;101805.41;6132010;23;96661;-85
2021/06/04 05:59:15;;;;;;;;;;;;;;;22.72;41.62;101806.78;6134655;23;96771;-84
2021/06/04 06:01:41;;;;;;;;;;;;;;;22.46;42.63;101798.66;6131929;23;96796;-84
2021/06/04 06:04:08;;;;;;;;;;;;;;;22.60;42.98;101812.06;6135536;23;98902;-84
2021/06/04 06:06:34;;;;;;;;;;;;;;;22.67;42.37;101817.88;6131664;23;97335;-83
2021/06/04 06:09:00;;;;;;;;;;;;;;;22.86;42.56;101823.75;6133590;23;96917;-85
2021/06/04 06:11:27;;;;;;;;;;;;;;;22.78;43.20;101825.25;6130571;23;98744;-83
2021/06/04 06:13:57;;;;;;;;;;;;;;;23.11;41.38;101825.56;6133370;23;99561;-84
2021/06/04 06:16:24;;;;;;;;;;;;;;;22.99;42.50;101819.22;6139079;23;96740;-83
2021/06/04 06:18:51;;;;;;;;;;;;;;;23.10;43.03;101826.56;6143246;23;97043;-83
2021/06/04 06:21:19;;;;;;;;;;;;;;;22.87;43.65;101828.19;6143694;23;99952;-83
2021/06/04 06:23:47;;;;;;;;;;;;;;;22.76;44.17;101833.47;6145364;23;98123;-82
2021/06/04 06:29:00;;;;;;;;;;;;;;;23.06;42.98;101835.81;6123648;22;96875;-84
2021/06/04 06:31:30;;;;;;;;;;;;;;;23.32;42.98;101840.22;6112849;23;98983;-82
2021/06/04 06:37:00;;;;;;;;;;;;;;;23.41;41.93;101836.88;6117674;22;96164;-84
2021/06/04 06:39:28;;;;;;;;;;;;;;;23.32;41.23;101850.16;6117674;23;96585;-83
2021/06/04 06:41:54;;;;;;;;;;;;;;;23.57;40.83;101846.56;6116442;23;100284;-85
2021/06/04 06:44:36;;;;;;;;;;;;;;;23.28;40.37;101840.56;6112246;23;97978;-83
2021/06/04 06:47:02;;;;;;;;;;;;;;;23.47;39.51;101841.00;6121135;23;96446;-84
2021/06/04 06:49:32;;;;;;;;;;;;;;;23.67;38.99;101837.72;6117430;23;96614;-84
2021/06/04 06:54:45;;;;;;;;;;;;;;;23.75;37.98;101839.84;6117407;23;98747;-83
2021/06/04 06:57:11;;;;;;;;;;;;;;;23.81;38.01;101842.97;6118253;23;96648;-83
2021/06/04 06:59:43;;;;;;;;;;;;;;;23.63;38.40;101840.75;6119049;23;96746;-84
2021/06/04 07:04:51;;;;;;;;;;;;;;;24.19;37.67;101850.94;6112392;23;96901;-83
2021/06/04 07:07:20;;;;;;;;;;;;;;;23.56;38.21;101851.13;6107202;23;96974;-83
2021/06/04 07:12:40;;;;;;;;;;;;;;;23.85;38.17;101846.28;6113004;23;98585;-83
2021/06/04 07:15:10;;;;;;;;;;;;;;;24.17;37.16;101842.03;6115192;23;100377;-83
2021/06/04 07:23:03;;;;;;;;;;;;;;;23.71;37.77;101835.63;6114242;23;98573;-83
2021/06/04 07:25:31;;;;;;;;;;;;;;;24.20;37.48;101833.75;6119736;23;97614;-84
2021/06/04 07:28:03;;;;;;;;;;;;;;;24.28;36.71;101830.47;6119292;23;96239;-84
2021/06/04 07:30:37;;;;;;;;;;;;;;;23.77;37.31;101824.38;6120518;23;96446;-85
2021/06/04 07:33:06;;;;;;;;;;;;;;;23.42;37.82;101817.03;6118992;23;98833;-84
2021/06/04 07:35:34;;;;;;;;;;;;;;;23.57;37.78;101816.91;6119667;23;100343;-83
2021/06/04 07:38:00;;;;;;;;;;;;;;;23.62;37.66;101822.84;6116376;23;96667;-84
2021/06/04 07:40:29;;;;;;;;;;;;;;;23.21;38.05;101817.69;6109234;23;97262;-83
2021/06/04 07:42:56;;;;;;;;;;;;;;;23.53;38.00;101824.38;6107193;23;101471;-84
2021/06/04 07:45:24;;;;;;;;;;;;;;;23.77;37.58;101817.16;6111225;23;101724;-83
2021/06/04 07:47:54;;;;;;;;;;;;;;;23.95;37.16;101814.94;6112586;23;97100;-84
2021/06/04 07:50:24;;;;;;;;;;;;;;;24.42;36.07;101826.69;6119877;23;96169;-84
2021/06/04 07:52:49;;;;;;;;;;;;;;;24.69;36.01;101826.41;6119803;23;99877;-84
2021/06/04 07:55:17;;;;;;;;;;;;;;;24.67;35.50;101831.09;6112547;23;97013;-83
2021/06/04 07:57:43;;;;;;;;;;;;;;;24.69;35.38;101829.13;6109635;23;96604;-83
2021/06/04 08:00:10;;;;;;;;;;;;;;;24.65;35.74;101833.91;6108351;23;96929;-83
2021/06/04 08:02:37;;;;;;;;;;;;;;;24.54;36.01;101828.47;6101942;23;96913;-83
2021/06/04 08:08:15;;;;;;;;;;;;;;;24.26;36.16;101834.25;6109433;22;96617;-83
2021/06/04 08:10:44;;;;;;;;;;;;;;;24.32;35.69;101831.09;6081468;23;96865;-84
2021/06/04 08:13:28;;;;;;;;;;;;;;;24.78;34.91;101837.38;6104135;23;99973;-83
2021/06/04 08:19:05;;;;;;;;;;;;;;;24.52;35.73;101841.25;6106000;23;96667;-86
2021/06/04 08:24:19;;;;;;;;;;;;;;;24.51;36.29;101840.38;6115250;23;100484;-85
2021/06/04 08:29:47;;;;;;;;;;;;;;;24.85;35.63;101838.63;6105663;23;96784;-83
2021/06/04 08:35:19;;;;;;;;;;;;;;;24.92;35.15;101839.91;6117079;23;98998;-82
2021/06/04 08:37:46;;;;;;;;;;;;;;;24.77;35.39;101845.59;6108429;23;100492;-84
2021/06/04 08:40:14;;;;;;;;;;;;;;;24.69;35.43;101838.09;6113469;23;96483;-88
2021/06/04 08:43:07;;;;;;;;;;;;;;;24.92;35.03;101839.03;6114033;23;96535;-84
2021/06/04 08:45:36;;;;;;;;;;;;;;;24.80;35.77;101838.13;6110573;23;99028;-84
2021/06/04 08:48:10;;;;;;;;;;;;;;;24.70;35.98;101833.53;6123105;23;99703;-88
2021/06/04 08:50:40;;;;;;;;;;;;;;;24.73;36.17;101827.91;6118951;23;96551;-86
2021/06/04 08:53:17;;;;;;;;;;;;;;;24.22;37.21;101826.38;6118425;23;96552;-86
2021/06/04 08:55:44;;;;;;;;;;;;;;;24.36;36.93;101827.16;6117294;23;99544;-83
2021/06/04 08:58:27;;;;;;;;;;;;;;;23.94;37.75;101818.63;6113381;23;96863;-84
2021/06/04 09:00:58;;;;;;;;;;;;;;;23.93;37.82;101816.03;6104950;23;96630;-84
2021/06/04 09:03:27;;;;;;;;;;;;;;;24.28;37.24;101821.50;6077735;23;96773;-83
2021/06/04 09:05:57;;;;;;;;;;;;;;;24.06;37.83;101825.78;6101523;23;98800;-84
2021/06/04 09:08:38;;;;;;;;;;;;;;;24.13;38.76;101837.00;6106753;23;99963;-84
2021/06/04 09:11:23;;;;;;;;;;;;;;;24.19;38.11;101833.88;6104287;23;96931;-85
2021/06/04 09:16:35;;;;;;;;;;;;;;;24.23;38.11;101833.50;6108188;23;99487;-86
2021/06/04 09:21:49;;;;;;;;;;;;;;;24.13;38.54;101835.16;6101609;22;97073;-86
2021/06/04 09:24:23;;;;;;;;;;;;;;;23.99;38.55;101827.22;6083252;23;96807;-86
2021/06/04 09:26:54;;;;;;;;;;;;;;;24.01;38.49;101837.91;6106659;23;99910;-85
2021/06/04 09:29:31;;;;;;;;;;;;;;;24.24;38.23;101839.78;6112652;23;97775;-88
2021/06/04 09:32:19;;;;;;;;;;;;;;;24.18;38.46;101843.78;6066121;23;100153;-88
2021/06/04 09:37:37;;;;;;;;;;;;;;;23.77;39.20;101849.53;6088256;23;98941;-88
2021/06/04 09:40:12;;;;;;;;;;;;;;;23.98;39.08;101849.81;6089319;23;98928;-88
2021/06/04 09:42:49;;;;;;;;;;;;;;;23.96;38.85;101840.94;6081626;23;96950;-86
2021/06/04 09:45:25;;;;;;;;;;;;;;;24.37;38.51;101837.00;6082726;23;96682;-87
2021/06/04 09:48:13;;;;;;;;;;;;;;;24.61;38.03;101845.94;6080078;23;98839;-86
2021/06/04 09:50:47;;;;;;;;;;;;;;;24.27;38.92;101852.19;6090119;23;98637;-88
2021/06/04 09:53:29;;;;;;;;;;;;;;;24.36;38.82;101856.88;6066668;23;96330;-88
2021/06/04 09:56:13;;;;;;;;;;;;;;;24.52;38.59;101866.41;6085376;23;96691;-86
2021/06/04 09:58:50;;;;;;;;;;;;;;;24.32;38.51;101861.66;6057105;23;97728;-86
2021/06/04 10:01:24;;;;;;;;;;;;;;;24.31;38.78;101867.19;6086568;23;100717;-85
2021/06/04 10:03:52;;;;;;;;;;;;;;;23.68;39.99;101868.25;6082811;23;96568;-81
2021/06/04 10:06:30;;;;;;;;;;;;;;;23.77;39.78;101867.56;6074444;23;96768;-84
2021/06/04 10:09:05;;;;;;;;;;;;;;;23.37;40.54;101867.72;6091703;23;98158;-84
2021/06/04 10:11:33;;;;;;;;;;;;;;;23.82;39.76;101858.19;6076266;23;99087;-83
2021/06/04 10:17:15;;;;;;;;;;;;;;;23.96;39.26;101849.03;6073398;23;96648;-85
2021/06/04 10:19:42;;;;;;;;;;;;;;;23.59;39.89;101852.72;6082785;23;100832;-86
2021/06/04 10:22:25;;;;;;;;;;;;;;;24.03;38.85;101842.22;6090178;23;96689;-85
2021/06/04 10:24:53;;;;;;;;;;;;;;;24.23;38.72;101841.63;6083597;23;96499;-87
2021/06/04 10:27:36;;;;;;;;;;;;;;;24.60;37.79;101836.97;6076784;23;96682;-83
2021/06/04 10:30:20;;;;;;;;;;;;;;;24.68;37.76;101833.66;6077744;23;98873;-85
2021/06/04 10:32:57;;;;;;;;;;;;;;;25.22;36.66;101825.78;6063051;23;99897;-85
2021/06/04 10:35:26;;;;;;;;;;;;;;;24.79;37.52;101822.91;6079212;23;97084;-86
2021/06/04 10:37:55;;;;;;;;;;;;;;;24.57;37.97;101818.28;6077423;23;96889;-86
2021/06/04 10:40:26;;;;;;;;;;;;;;;25.19;36.77;101817.94;6077513;23;98975;-87
2021/06/04 10:42:57;;;;;;;;;;;;;;;25.48;35.98;101818.25;6077823;23;99781;-88
2021/06/04 10:50:51;;;;;;;;;;;;;;;25.14;36.36;101822.81;6107723;23;96710;-87
2021/06/04 10:56:04;;;;;;;;;;;;;;;25.46;35.54;101825.66;6107999;23;96761;-87
2021/06/04 10:58:37;;;;;;;;;;;;;;;25.75;35.15;101829.56;6106285;23;96603;-86
2021/06/04 11:04:08;;;;;;;;;;;;;;;26.46;34.33;101825.41;6097439;23;98167;-88
2021/06/04 11:06:42;;;;;;;;;;;;;;;26.50;33.57;101826.03;6099069;23;96900;-87
2021/06/04 11:09:14;;;;;;;;;;;;;;;26.65;33.07;101823.84;6101432;23;96710;-87
2021/06/04 11:14:52;;;;;;;;;;;;;;;27.36;32.03;101817.56;6078723;23;97680;-86
2021/06/04 11:17:22;;;;;;;;;;;;;;;27.29;32.24;101813.66;6098714;23;97015;-86
2021/06/04 11:22:51;;;;;;;;;;;;;;;27.94;31.08;101815.00;6091939;23;98025;-85
2021/06/04 11:25:25;;;;;;;;;;;;;;;28.17;30.60;101811.03;6098500;23;99016;-85
2021/06/04 11:28:05;;;;;;;;;;;;;;;27.96;31.37;101822.00;6100227;23;96671;-85
2021/06/04 11:30:32;;;;;;;;;;;;;;;28.02;31.83;101810.59;6101013;23;97044;-85
2021/06/04 11:33:01;;;;;;;;;;;;;;;27.71;31.62;101819.81;6100484;23;98940;-82
2021/06/04 11:35:28;;;;;;;;;;;;;;;27.89;30.80;101817.28;6101937;23;98738;-86
2021/06/04 11:38:04;;;;;;;;;;;;;;;28.34;30.69;101817.63;6100349;23;96692;-85
2021/06/04 11:41:03;;;;;;;;;;;;;;;28.44;30.33;101819.34;6115051;23;96955;-86
2021/06/04 11:43:51;;;;;;;;;;;;;;;28.71;30.28;101825.88;6110074;23;97874;-86
2021/06/04 11:46:25;;;;;;;;;;;;;;;28.26;30.44;101820.22;6117854;23;98515;-83
2021/06/04 11:49:09;;;;;;;;;;;;;;;28.74;30.07;101822.88;6114175;23;96697;-83
2021/06/04 11:51:37;;;;;;;;;;;;;;;28.92;30.11;101819.28;6119377;23;96554;-84
2021/06/04 11:54:30;;;;;;;;;;;;;;;28.42;30.23;101826.78;6119761;23;96814;-83
2021/06/04 11:56:59;;;;;;;;;;;;;;;28.61;29.55;101828.63;6092211;23;99584;-84
2021/06/04 11:59:45;;;;;;;;;;;;;;;28.56;29.42;101817.31;6115476;23;96720;-85
2021/06/04 12:02:27;;;;;;;;;;;;;;;28.69;28.77;101817.88;6115772;23;96380;-84
2021/06/04 12:05:04;;;;;;;;;;;;;;;28.89;28.90;101822.28;6116927;23;98068;-83
2021/06/04 12:07:35;;;;;;;;;;;;;;;29.11;28.64;101812.06;6116505;23;96826;-84
2021/06/04 12:10:02;;;;;;;;;;;;;;;29.04;28.59;101811.81;6118312;23;96634;-83
2021/06/04 12:12:53;;;;;;;;;;;;;;;29.57;28.14;101798.41;6120592;23;96637;-81
2021/06/04 12:15:41;;;;;;;;;;;;;;;29.54;27.93;101797.84;6117089;23;99031;-83
2021/06/04 12:18:32;;;;;;;;;;;;;;;29.33;28.65;101800.81;6112785;23;98968;-86
2021/06/04 12:20:59;;;;;;;;;;;;;;;29.12;28.95;101808.34;6120940;23;95810;-84
2021/06/04 12:23:43;;;;;;;;;;;;;;;28.84;29.23;101812.88;6120042;23;95944;-86
2021/06/04 12:26:09;;;;;;;;;;;;;;;29.09;29.01;101800.47;6119136;23;97841;-86
2021/06/04 12:28:37;;;;;;;;;;;;;;;29.82;28.08;101788.63;6117801;23;99821;-85
2021/06/04 12:31:31;;;;;;;;;;;;;;;29.60;27.99;101789.91;6113596;23;96409;-85
2021/06/04 12:34:01;;;;;;;;;;;;;;;30.34;27.13;101786.09;6110863;23;96789;-86
2021/06/04 12:36:47;;;;;;;;;;;;;;;30.00;27.57;101783.22;6110361;23;100265;-85
2021/06/04 12:39:33;;;;;;;;;;;;;;;30.52;27.39;101776.06;6094862;23;96594;-84
2021/06/04 12:42:01;;;;;;;;;;;;;;;30.14;27.30;101790.00;6111651;23;96871;-85
2021/06/04 12:44:28;;;;;;;;;;;;;;;30.25;27.02;101777.00;6106079;23;96720;-86
2021/06/04 12:46:54;;;;;;;;;;;;;;;30.17;26.83;101768.75;6105816;23;98840;-85
2021/06/04 12:49:22;;;;;;;;;;;;;;;29.75;27.67;101768.47;6113401;23;97786;-85
2021/06/04 12:51:49;;;;;;;;;;;;;;;28.82;28.96;101774.91;6101541;23;96741;-85
2021/06/04 12:54:21;;;;;;;;;;;;;;;29.41;27.97;101770.97;6099581;23;96812;-85
2021/06/04 12:56:51;;;;;;;;;;;;;;;29.28;28.05;101765.00;6105659;23;99056;-85
2021/06/04 12:59:20;;;;;;;;;;;;;;;29.19;28.40;101765.91;6108753;23;98482;-86
2021/06/04 13:02:02;;;;;;;;;;;;;;;29.15;28.64;101764.47;6108085;23;97338;-85
2021/06/04 13:04:32;;;;;;;;;;;;;;;29.33;28.58;101759.97;6112361;23;96621;-85
2021/06/04 13:06:59;;;;;;;;;;;;;;;29.77;27.13;101755.56;6110642;23;97047;-84
2021/06/04 13:09:27;;;;;;;;;;;;;;;29.89;27.39;101757.03;6116829;23;98703;-84
2021/06/04 13:11:53;;;;;;;;;;;;;;;29.73;27.17;101755.00;6118120;23;96495;-84
2021/06/04 13:14:25;;;;;;;;;;;;;;;29.48;27.64;101758.47;6117950;23;97781;-86
2021/06/04 13:16:52;;;;;;;;;;;;;;;29.48;27.79;101750.28;6115729;23;98247;-86
2021/06/04 13:19:19;;;;;;;;;;;;;;;29.46;28.05;101746.88;6114874;23;99890;-86
2021/06/04 13:21:52;;;;;;;;;;;;;;;30.48;26.79;101756.38;6112452;23;96974;-83
2021/06/04 13:24:25;;;;;;;;;;;;;;;31.30;25.83;101760.50;6108312;23;96353;-83
2021/06/04 13:26:53;;;;;;;;;;;;;;;30.68;26.06;101754.31;6101226;23;99971;-84
2021/06/04 13:29:23;;;;;;;;;;;;;;;31.58;25.64;101753.72;6106552;23;98138;-84
2021/06/04 13:31:49;;;;;;;;;;;;;;;32.24;24.83;101750.13;6103553;23;97077;-86
2021/06/04 13:34:16;;;;;;;;;;;;;;;32.95;24.05;101746.59;6099505;23;97433;-84
2021/06/04 13:36:44;;;;;;;;;;;;;;;31.58;25.88;101747.41;6097897;23;101108;-85
2021/06/04 13:39:18;;;;;;;;;;;;;;;32.88;24.45;101751.09;6098045;23;98011;-86
2021/06/04 13:41:47;;;;;;;;;;;;;;;31.97;25.02;101744.94;6104124;23;96713;-85
2021/06/04 13:44:16;;;;;;;;;;;;;;;33.06;24.22;101748.09;6105260;23;96803;-85
2021/06/04 13:46:57;;;;;;;;;;;;;;;;;;;;;
2021/06/04 13:49:31;;;;;;;;;;;;;;;32.74;24.28;101743.59;6097924;23;126945;-85
2021/06/04 13:51:58;;;;;;;;;;;;;;;32.63;24.22;101752.13;6099692;23;97062;-85
2021/06/04 13:54:30;;;;;;;;;;;;;;;33.07;23.51;101738.88;6099230;23;96809;-85
2021/06/04 13:56:56;;;;;;;;;;;;;;;34.35;22.17;101736.38;6105161;23;99494;-86
2021/06/04 13:59:27;;;;;;;;;;;;;;;33.91;22.63;101729.88;6101059;23;99279;-83
2021/06/04 14:01:55;;;;;;;;;;;;;;;33.25;23.54;101724.94;6098610;23;96629;-84
2021/06/04 14:04:25;;;;;;;;;;;;;;;32.99;23.77;101730.69;6098297;23;96764;-82
2021/06/04 14:06:52;;;;;;;;;;;;;;;34.22;22.66;101724.31;6096534;23;100356;-84